createdAt,value
2023-03-02T00:01:10.225Z,99814.44
2023-03-02T00:04:16.638Z,99804.66
2023-03-02T00:07:32.054Z,99806.16
2023-03-02T00:10:34.356Z,99805.03
2023-03-02T00:13:37.575Z,99805.88
2023-03-02T00:16:40.343Z,99802.37
2023-03-02T00:19:42.679Z,99799.47
2023-03-02T00:22:45.835Z,99810.91
2023-03-02T00:25:48.226Z,99808.56
2023-03-02T00:28:50.475Z,99803.03
2023-03-02T00:31:52.732Z,99798.94
2023-03-02T00:34:55.000Z,99786.72
2023-03-02T00:37:57.180Z,99789.53
2023-03-02T00:40:59.491Z,99789.19
2023-03-02T00:44:01.655Z,99773.06
2023-03-02T00:47:03.866Z,99771.28
2023-03-02T00:50:06.764Z,99770.34
2023-03-02T00:53:11.830Z,99765.69
2023-03-02T00:56:14.147Z,99768.38
2023-03-02T00:59:28.267Z,99766.81
2023-03-02T01:02:30.478Z,99761.53
2023-03-02T01:05:36.543Z,99762.38
2023-03-02T01:08:38.724Z,99761.91
2023-03-02T01:11:40.950Z,99754.41
2023-03-02T01:14:47.115Z,99745.44
2023-03-02T01:17:49.415Z,99743.66
2023-03-02T01:21:00.921Z,99731.69
2023-03-02T01:24:02.993Z,99736.38
2023-03-02T01:27:05.073Z,99734.97
2023-03-02T01:30:07.991Z,99738.81
2023-03-02T01:33:10.315Z,99725.94
2023-03-02T01:36:12.562Z,99727.16
2023-03-02T01:39:17.657Z,99722.38
2023-03-02T01:42:19.904Z,99717.28
2023-03-02T01:45:57.518Z,99709.00
2023-03-02T01:49:06.524Z,99716.34
2023-03-02T01:52:10.562Z,99713.72
2023-03-02T01:55:15.353Z,99717.97
2023-03-02T01:58:17.896Z,99708.00
2023-03-02T02:01:20.364Z,99699.59
2023-03-02T02:04:23.749Z,99697.13
2023-03-02T02:07:26.001Z,99697.03
2023-03-02T02:10:28.491Z,99685.25
2023-03-02T02:13:30.689Z,99691.03
2023-03-02T02:16:34.504Z,99679.03
2023-03-02T02:19:43.073Z,99674.22
2023-03-02T02:23:13.194Z,99677.88
2023-03-02T02:26:23.587Z,99677.19
2023-03-02T02:29:34.745Z,99677.75
2023-03-02T02:32:39.246Z,99679.25
2023-03-02T02:35:41.724Z,99672.00
2023-03-02T02:38:47.962Z,99676.09
2023-03-02T02:41:52.034Z,99677.03
2023-03-02T02:45:01.266Z,99676.59
2023-03-02T02:48:03.546Z,99678.56
2023-03-02T02:51:08.896Z,99675.03
2023-03-02T02:54:15.228Z,99670.63
2023-03-02T02:57:18.730Z,99662.56
2023-03-02T03:00:22.594Z,99665.50
2023-03-02T03:03:31.382Z,99670.59
2023-03-02T03:06:38.546Z,99661.94
2023-03-02T03:09:40.836Z,99662.66
2023-03-02T03:12:43.449Z,99667.84
2023-03-02T03:15:45.695Z,99673.16
2023-03-02T03:18:48.427Z,99668.44
2023-03-02T03:21:53.359Z,99663.88
2023-03-02T03:24:55.530Z,99666.91
2023-03-02T03:27:57.690Z,99667.47
2023-03-02T03:30:59.977Z,99656.94
2023-03-02T03:34:02.220Z,99651.44
2023-03-02T03:37:05.142Z,99664.41
2023-03-02T03:40:09.815Z,99653.53
2023-03-02T03:43:13.806Z,99655.81
2023-03-02T03:46:16.746Z,99649.06
2023-03-02T03:49:19.036Z,99650.59
2023-03-02T03:52:30.430Z,99659.03
2023-03-02T03:55:32.664Z,99661.25
2023-03-02T03:58:34.941Z,99663.69
2023-03-02T04:01:51.416Z,99671.69
2023-03-02T04:04:53.732Z,99675.94
2023-03-02T04:07:55.918Z,99673.69
2023-03-02T04:10:58.091Z,99669.53
2023-03-02T04:14:00.462Z,99659.00
2023-03-02T04:17:05.448Z,99664.44
2023-03-02T04:20:09.564Z,99673.34
2023-03-02T04:23:12.127Z,99676.88
2023-03-02T04:26:14.398Z,99674.00
2023-03-02T04:29:17.902Z,99669.16
2023-03-02T04:32:20.111Z,99675.97
2023-03-02T04:35:22.394Z,99669.12
2023-03-02T04:38:24.696Z,99673.31
2023-03-02T04:41:26.854Z,99678.53
2023-03-02T04:44:29.059Z,99674.13
2023-03-02T04:47:31.208Z,99671.03
2023-03-02T04:50:33.990Z,99669.56
2023-03-02T04:53:36.150Z,99662.19
2023-03-02T04:56:38.329Z,99665.41
2023-03-02T04:59:40.665Z,99668.09
2023-03-02T05:02:43.163Z,99667.19
2023-03-02T05:05:45.425Z,99666.09
2023-03-02T05:08:48.258Z,99671.31
2023-03-02T05:11:50.449Z,99662.50
2023-03-02T05:14:52.649Z,99670.06
2023-03-02T05:17:55.438Z,99671.06
2023-03-02T05:20:58.104Z,99674.63
2023-03-02T05:24:00.481Z,99672.81
2023-03-02T05:27:02.667Z,99674.56
2023-03-02T05:30:06.241Z,99673.81
2023-03-02T05:33:08.740Z,99680.25
2023-03-02T05:36:11.081Z,99678.53
2023-03-02T05:39:13.669Z,99678.44
2023-03-02T05:42:15.815Z,99684.19
2023-03-02T05:45:30.436Z,99678.09
2023-03-02T05:48:32.643Z,99680.66
2023-03-02T05:51:34.832Z,99680.25
2023-03-02T05:54:36.942Z,99685.62
2023-03-02T05:57:39.479Z,99684.81
2023-03-02T06:00:41.740Z,99691.41
2023-03-02T06:03:43.942Z,99696.25
2023-03-02T06:06:48.863Z,99700.78
2023-03-02T06:09:51.204Z,99700.84
2023-03-02T06:12:53.414Z,99702.91
2023-03-02T06:15:55.917Z,99695.91
2023-03-02T06:18:58.124Z,99704.56
2023-03-02T06:22:00.303Z,99703.66
2023-03-02T06:25:02.505Z,99704.34
2023-03-02T06:28:04.788Z,99710.91
2023-03-02T06:31:06.962Z,99713.06
2023-03-02T06:34:09.108Z,99716.25
2023-03-02T06:37:11.301Z,99717.63
2023-03-02T06:40:14.324Z,99708.31
2023-03-02T06:43:17.176Z,99714.59
2023-03-02T06:46:19.396Z,99709.03
2023-03-02T06:49:21.753Z,99713.31
2023-03-02T06:52:24.022Z,99721.81
2023-03-02T06:55:26.249Z,99721.13
2023-03-02T06:58:28.400Z,99716.72
2023-03-02T07:01:35.683Z,99723.09
2023-03-02T07:04:38.162Z,99717.16
2023-03-02T07:07:40.404Z,99717.31
2023-03-02T07:10:42.586Z,99715.44
2023-03-02T07:13:44.844Z,99717.38
2023-03-02T07:16:47.084Z,99718.28
2023-03-02T07:19:49.355Z,99727.25
2023-03-02T07:22:51.519Z,99718.78
2023-03-02T07:25:53.672Z,99723.12
2023-03-02T07:28:55.931Z,99728.78
2023-03-02T07:32:01.085Z,99719.22
2023-03-02T07:35:03.363Z,99724.38
2023-03-02T07:38:05.751Z,99725.91
2023-03-02T07:41:09.362Z,99717.63
2023-03-02T07:44:11.930Z,99725.38
2023-03-02T07:47:14.332Z,99716.00
2023-03-02T07:50:16.863Z,99709.75
2023-03-02T07:53:19.097Z,99710.22
2023-03-02T07:56:21.748Z,99714.66
2023-03-02T07:59:24.285Z,99716.63
2023-03-02T08:02:26.597Z,99703.56
2023-03-02T08:05:28.796Z,99706.72
2023-03-02T08:08:30.974Z,99706.78
2023-03-02T08:11:33.377Z,99705.50
2023-03-02T08:14:35.955Z,99705.69
2023-03-02T08:17:38.148Z,99702.72
2023-03-02T08:20:40.384Z,99711.28
2023-03-02T08:23:43.028Z,99704.06
2023-03-02T08:26:45.226Z,99710.50
2023-03-02T08:29:47.369Z,99706.25
2023-03-02T08:32:49.603Z,99704.75
2023-03-02T08:36:05.000Z,99709.03
2023-03-02T08:39:07.302Z,99715.91
2023-03-02T08:42:09.539Z,99703.97
2023-03-02T08:45:12.284Z,99697.22
2023-03-02T08:48:14.474Z,99705.59
2023-03-02T08:51:19.532Z,99698.91
2023-03-02T08:54:22.024Z,99699.09
2023-03-02T08:57:24.253Z,99692.91
2023-03-02T09:00:26.545Z,99692.38
2023-03-02T09:03:28.775Z,99698.97
2023-03-02T09:06:32.427Z,99693.12
2023-03-02T09:09:34.648Z,99690.91
2023-03-02T09:12:36.842Z,99692.25
2023-03-02T09:15:39.017Z,99682.97
2023-03-02T09:18:41.232Z,99687.97
2023-03-02T09:21:43.414Z,99684.09
2023-03-02T09:24:45.661Z,99683.47
2023-03-02T09:27:47.870Z,99687.94
2023-03-02T09:30:56.845Z,99683.22
2023-03-02T09:33:59.147Z,99681.63
2023-03-02T09:37:01.313Z,99686.47
2023-03-02T09:40:03.702Z,99679.59
2023-03-02T09:43:33.668Z,99694.00
2023-03-02T09:47:00.979Z,99675.78
2023-03-02T09:50:34.308Z,99676.00
2023-03-02T09:53:36.490Z,99681.66
2023-03-02T09:56:47.758Z,99681.09
2023-03-02T10:00:18.109Z,99673.87
2023-03-02T10:03:31.101Z,99674.44
2023-03-02T10:06:33.658Z,99669.41
2023-03-02T10:09:36.084Z,99670.47
2023-03-02T10:12:50.370Z,99655.84
2023-03-02T10:15:58.761Z,99652.69
2023-03-02T10:19:07.086Z,99658.00
2023-03-02T10:22:20.264Z,99666.94
2023-03-02T10:25:42.222Z,99652.16
2023-03-02T10:28:49.846Z,99661.53
2023-03-02T10:32:10.225Z,99657.03
2023-03-02T10:35:17.859Z,99660.00
2023-03-02T10:38:22.911Z,99653.41
2023-03-02T10:41:33.158Z,99658.19
2023-03-02T10:44:39.308Z,99643.91
2023-03-02T10:47:41.766Z,99651.88
2023-03-02T10:50:44.584Z,99653.13
2023-03-02T10:53:46.746Z,99644.22
2023-03-02T10:56:51.971Z,99637.28
2023-03-02T11:00:00.307Z,99627.81
2023-03-02T11:03:06.867Z,99622.63
2023-03-02T11:06:28.313Z,99623.12
2023-03-02T11:09:30.531Z,99625.16
2023-03-02T11:12:35.585Z,99614.25
2023-03-02T11:15:44.996Z,99610.13
2023-03-02T11:18:52.059Z,99616.94
2023-03-02T11:22:21.716Z,99604.09
2023-03-02T11:25:28.798Z,99607.56
2023-03-02T11:28:50.053Z,99604.91
2023-03-02T11:32:24.510Z,99597.94
2023-03-02T11:35:43.319Z,99598.97
2023-03-02T11:38:58.678Z,99592.41
2023-03-02T11:42:00.871Z,99591.88
2023-03-02T11:45:27.385Z,99580.25
2023-03-02T11:48:36.486Z,99583.38
2023-03-02T11:51:50.073Z,99584.34
2023-03-02T11:55:22.387Z,99571.78
2023-03-02T11:58:27.167Z,99576.59
2023-03-02T12:01:29.766Z,99572.94
2023-03-02T12:04:34.988Z,99575.91
2023-03-02T12:07:37.140Z,99571.19
2023-03-02T12:10:42.972Z,99568.75
2023-03-02T12:13:45.068Z,99567.28
2023-03-02T12:16:47.249Z,99562.62
2023-03-02T12:19:51.716Z,99568.16
2023-03-02T12:22:54.171Z,99565.25
2023-03-02T12:26:09.522Z,99557.28
2023-03-02T12:29:11.647Z,99558.53
2023-03-02T12:32:26.540Z,99562.84
2023-03-02T12:35:31.633Z,99551.34
2023-03-02T12:38:37.052Z,99556.47
2023-03-02T12:41:39.224Z,99546.22
2023-03-02T12:44:52.264Z,99545.63
2023-03-02T12:48:22.911Z,99545.84
2023-03-02T12:51:30.679Z,99543.84
2023-03-02T12:54:34.765Z,99540.94
2023-03-02T12:57:48.664Z,99539.53
2023-03-02T13:00:59.892Z,99531.94
2023-03-02T13:04:02.137Z,99535.19
2023-03-02T13:07:05.191Z,99532.78
2023-03-02T13:10:30.865Z,99524.75
2023-03-02T13:13:33.094Z,99523.78
2023-03-02T13:16:36.912Z,99513.94
2023-03-02T13:19:39.450Z,99511.03
2023-03-02T13:22:41.872Z,99510.22
2023-03-02T13:25:50.991Z,99518.03
2023-03-02T13:29:23.122Z,99512.69
2023-03-02T13:32:27.466Z,99516.78
2023-03-02T13:35:32.076Z,99512.28
2023-03-02T13:38:37.080Z,99497.84
2023-03-02T13:41:40.711Z,99495.50
2023-03-02T13:44:43.082Z,99497.75
2023-03-02T13:47:45.313Z,99505.28
2023-03-02T13:51:17.090Z,99490.16
2023-03-02T13:54:26.466Z,99492.22
2023-03-02T13:57:30.912Z,99480.81
2023-03-02T14:00:34.472Z,99482.78
2023-03-02T14:03:36.635Z,99478.09
2023-03-02T14:06:38.834Z,99479.94
2023-03-02T14:09:40.976Z,99476.63
2023-03-02T14:12:50.609Z,99473.16
2023-03-02T14:15:53.687Z,99465.59
2023-03-02T14:18:58.669Z,99455.59
2023-03-02T14:22:00.886Z,99458.66
2023-03-02T14:25:03.232Z,99454.34
2023-03-02T14:28:05.442Z,99447.13
2023-03-02T14:31:09.197Z,99444.47
2023-03-02T14:34:15.921Z,99442.69
2023-03-02T14:37:20.409Z,99438.34
2023-03-02T14:40:28.652Z,99437.72
2023-03-02T14:43:30.848Z,99449.03
2023-03-02T14:46:33.086Z,99438.78
2023-03-02T14:49:35.398Z,99440.22
2023-03-02T14:52:52.001Z,99430.28
2023-03-02T14:55:54.178Z,99428.06
2023-03-02T14:58:58.348Z,99435.47
2023-03-02T15:02:08.221Z,99424.44
2023-03-02T15:05:18.828Z,99429.53
2023-03-02T15:08:22.981Z,99422.41
2023-03-02T15:11:26.566Z,99424.84
2023-03-02T15:14:28.732Z,99424.44
2023-03-02T15:17:31.370Z,99417.13
2023-03-02T15:20:33.729Z,99424.84
2023-03-02T15:23:35.941Z,99420.69
2023-03-02T15:26:42.269Z,99417.22
2023-03-02T15:29:45.965Z,99420.69
2023-03-02T15:32:48.174Z,99421.16
2023-03-02T15:35:55.410Z,99416.53
2023-03-02T15:38:57.943Z,99424.41
2023-03-02T15:42:01.059Z,99424.28
2023-03-02T15:45:04.719Z,99419.34
2023-03-02T15:48:06.886Z,99421.91
2023-03-02T15:51:10.131Z,99426.22
2023-03-02T15:54:12.570Z,99434.59
2023-03-02T15:57:15.135Z,99435.88
2023-03-02T16:00:18.196Z,99435.06
2023-03-02T16:03:22.986Z,99433.78
2023-03-02T16:06:25.218Z,99438.06
2023-03-02T16:09:28.977Z,99441.12
2023-03-02T16:12:31.169Z,99435.22
2023-03-02T16:15:40.242Z,99438.84
2023-03-02T16:18:42.389Z,99432.09
2023-03-02T16:21:44.901Z,99443.47
2023-03-02T16:24:49.285Z,99440.03
2023-03-02T16:27:53.387Z,99440.81
2023-03-02T16:31:03.964Z,99436.78
2023-03-02T16:34:08.826Z,99446.69
2023-03-02T16:37:11.294Z,99446.63
2023-03-02T16:40:14.012Z,99441.78
2023-03-02T16:43:16.545Z,99448.31
2023-03-02T16:46:19.492Z,99454.56
2023-03-02T16:49:21.717Z,99450.34
2023-03-02T16:52:23.957Z,99452.03
2023-03-02T16:55:26.339Z,99451.75
2023-03-02T16:58:28.744Z,99466.87
2023-03-02T17:01:31.145Z,99466.00
2023-03-02T17:04:36.997Z,99467.31
2023-03-02T17:07:39.277Z,99464.00
2023-03-02T17:10:41.963Z,99462.75
2023-03-02T17:13:44.492Z,99469.09
2023-03-02T17:16:46.906Z,99472.53
2023-03-02T17:19:49.172Z,99474.59
2023-03-02T17:22:51.444Z,99475.56
2023-03-02T17:25:54.380Z,99474.09
2023-03-02T17:28:56.567Z,99468.22
2023-03-02T17:31:59.116Z,99462.59
2023-03-02T17:35:01.385Z,99464.47
2023-03-02T17:38:04.122Z,99465.66
2023-03-02T17:41:07.448Z,99475.19
2023-03-02T17:44:09.631Z,99479.66
2023-03-02T17:47:14.901Z,99485.41
2023-03-02T17:50:17.530Z,99477.78
2023-03-02T17:53:20.097Z,99474.44
2023-03-02T17:56:24.906Z,99480.72
2023-03-02T17:59:27.500Z,99487.59
2023-03-02T18:02:29.972Z,99486.12
2023-03-02T18:05:32.363Z,99487.94
2023-03-02T18:08:34.645Z,99481.53
2023-03-02T18:11:37.067Z,99479.19
2023-03-02T18:14:39.371Z,99478.72
2023-03-02T18:17:41.825Z,99483.22
2023-03-02T18:20:44.099Z,99483.56
2023-03-02T18:23:47.050Z,99490.16
2023-03-02T18:26:49.684Z,99482.28
2023-03-02T18:29:52.132Z,99478.00
2023-03-02T18:32:54.631Z,99480.66
2023-03-02T18:35:57.370Z,99485.41
2023-03-02T18:38:59.705Z,99484.56
2023-03-02T18:42:02.210Z,99485.75
2023-03-02T18:45:05.885Z,99477.50
2023-03-02T18:48:08.486Z,99484.38
2023-03-02T18:51:10.782Z,99490.13
2023-03-02T18:54:13.297Z,99488.75
2023-03-02T18:57:15.797Z,99481.00
2023-03-02T19:00:21.671Z,99482.16
2023-03-02T19:03:24.831Z,99487.91
2023-03-02T19:06:27.393Z,99489.00
2023-03-02T19:09:30.391Z,99485.84
2023-03-02T19:12:32.935Z,99490.91
2023-03-02T19:15:37.153Z,99498.34
2023-03-02T19:18:39.581Z,99478.97
2023-03-02T19:21:42.015Z,99499.81
2023-03-02T19:24:46.099Z,99491.59
2023-03-02T19:27:48.638Z,99487.53
2023-03-02T19:30:51.056Z,99485.88
2023-03-02T19:33:54.154Z,99492.38
2023-03-02T19:36:56.684Z,99496.56
2023-03-02T19:39:59.091Z,99495.22
2023-03-02T19:43:01.909Z,99484.78
2023-03-02T19:46:05.264Z,99486.53
2023-03-02T19:49:07.658Z,99491.66
2023-03-02T19:52:10.450Z,99504.47
2023-03-02T19:55:14.929Z,99502.28
2023-03-02T19:58:19.693Z,99502.28
2023-03-02T20:01:24.836Z,99497.94
2023-03-02T20:04:27.930Z,99497.34
2023-03-02T20:07:30.963Z,99502.44
2023-03-02T20:10:37.301Z,99489.78
2023-03-02T20:13:39.742Z,99497.56
2023-03-02T20:16:42.622Z,99494.12
2023-03-02T20:19:46.913Z,99497.56
2023-03-02T20:22:49.710Z,99492.63
2023-03-02T20:25:52.143Z,99494.34
2023-03-02T20:28:55.880Z,99501.03
2023-03-02T20:31:58.441Z,99497.84
2023-03-02T20:35:00.951Z,99508.56
2023-03-02T20:38:06.932Z,99498.34
2023-03-02T20:41:11.774Z,99509.62
2023-03-02T20:44:14.989Z,99509.41
2023-03-02T20:47:17.593Z,99497.94
2023-03-02T20:50:23.416Z,99507.22
2023-03-02T20:53:26.148Z,99504.41
2023-03-02T20:56:28.614Z,99501.50
2023-03-02T20:59:31.886Z,99498.87
2023-03-02T21:02:34.235Z,99502.12
2023-03-02T21:05:40.336Z,99495.12
2023-03-02T21:08:43.897Z,99493.72
2023-03-02T21:11:47.260Z,99483.50
2023-03-02T21:14:50.982Z,99473.63
2023-03-02T21:17:54.682Z,99482.69
2023-03-02T21:20:57.261Z,99480.25
2023-03-02T21:23:59.807Z,99479.38
2023-03-02T21:27:02.603Z,99479.47
2023-03-02T21:30:06.384Z,99482.91
2023-03-02T21:33:08.626Z,99480.84
2023-03-02T21:36:23.383Z,99479.41
2023-03-02T21:39:25.901Z,99484.19
2023-03-02T21:42:28.239Z,99483.69
2023-03-02T21:45:30.434Z,99479.72
2023-03-02T21:48:32.868Z,99474.16
2023-03-02T21:51:35.183Z,99474.38
2023-03-02T21:54:37.381Z,99474.63
2023-03-02T21:57:40.408Z,99477.78
2023-03-02T22:00:42.693Z,99476.41
2023-03-02T22:03:44.940Z,99477.66
2023-03-02T22:06:47.154Z,99473.78
2023-03-02T22:09:49.397Z,99474.41
2023-03-02T22:12:56.699Z,99476.44
2023-03-02T22:16:12.375Z,99469.34
2023-03-02T22:19:32.424Z,99467.28
2023-03-02T22:22:34.603Z,99466.66
2023-03-02T22:25:36.863Z,99466.06
2023-03-02T22:28:41.021Z,99464.00
2023-03-02T22:31:47.484Z,99463.53
2023-03-02T22:34:52.694Z,99465.03
2023-03-02T22:38:00.451Z,99458.75
2023-03-02T22:41:02.662Z,99459.41
2023-03-02T22:44:11.109Z,99463.69
2023-03-02T22:47:18.886Z,99462.88
2023-03-02T22:50:23.737Z,99460.00
2023-03-02T22:53:30.531Z,99448.47
2023-03-02T22:56:43.823Z,99453.59
2023-03-02T22:59:46.151Z,99458.97
2023-03-02T23:02:48.362Z,99454.00
2023-03-02T23:05:52.865Z,99451.09
2023-03-02T23:09:00.195Z,99454.31
2023-03-02T23:12:10.071Z,99447.34
2023-03-02T23:15:18.623Z,99442.50
2023-03-02T23:18:26.312Z,99444.31
2023-03-02T23:21:40.099Z,99441.44
2023-03-02T23:24:42.450Z,99443.19
2023-03-02T23:27:44.598Z,99443.00
2023-03-02T23:30:47.632Z,99436.34
2023-03-02T23:33:49.867Z,99438.22
2023-03-02T23:36:52.039Z,99436.66
2023-03-02T23:39:54.207Z,99434.19
2023-03-02T23:42:56.466Z,99436.50
2023-03-02T23:45:58.685Z,99429.87
2023-03-02T23:49:01.275Z,99425.47
2023-03-02T23:52:03.648Z,99427.41
2023-03-02T23:55:07.627Z,99428.41
2023-03-02T23:58:09.784Z,99426.50
